Time;durP1;ratioP1;P1;durP2;ratioP2;P2;SDS_P1;SDS_P2;PMS_P1;PMS_P2;Temp;Humidity;BMP_temperature;BMP_pressure;BME280_temperature;BME280_humidity;BME280_pressure;Samples;Min_cycle;Max_cycle;Signal;HPM_P1;HPM_P2
2021/10/17 00:01:16;;;;;;;34.22;18.98;;;;;;;21.20;47.48;100671.81;4426417;32;20199;-69
2021/10/17 00:03:42;;;;;;;35.40;19.48;;;;;;;21.05;48.20;100670.44;4426130;32;20052;-69
2021/10/17 00:06:08;;;;;;;32.58;17.02;;;;;;;20.98;48.49;100665.97;4424507;32;20089;-69
2021/10/17 00:08:34;;;;;;;36.42;17.50;;;;;;;21.05;48.27;100668.34;4426041;32;20393;-69
2021/10/17 00:11:00;;;;;;;33.45;17.55;;;;;;;21.23;47.89;100667.91;4427349;32;20185;-69
2021/10/17 00:13:26;;;;;;;38.25;17.60;;;;;;;21.16;48.12;100665.56;4425168;32;20038;-69
2021/10/17 00:15:52;;;;;;;30.98;17.33;;;;;;;21.24;47.92;100660.13;4425386;32;20459;-69
2021/10/17 00:18:19;;;;;;;28.83;17.60;;;;;;;21.32;47.73;100655.44;4425880;32;20034;-69
2021/10/17 00:20:45;;;;;;;27.60;17.20;;;;;;;21.30;47.76;100653.09;4424704;32;20100;-69
2021/10/17 00:23:11;;;;;;;35.85;18.62;;;;;;;21.51;47.38;100654.47;4423372;32;20046;-69
2021/10/17 00:25:37;;;;;;;32.78;17.55;;;;;;;21.64;47.06;100646.19;4418736;32;20038;-69
2021/10/17 00:28:03;;;;;;;32.58;17.55;;;;;;;21.79;46.82;100648.06;4425204;32;20038;-69
2021/10/17 00:30:29;;;;;;;31.85;16.35;;;;;;;21.94;46.49;100637.94;4426661;32;20438;-69
2021/10/17 00:32:54;;;;;;;30.33;17.25;;;;;;;21.91;46.30;100641.06;4413877;32;20042;-69
2021/10/17 00:35:21;;;;;;;30.70;17.50;;;;;;;21.92;46.42;100634.81;4418644;32;20071;-69
2021/10/17 00:37:48;;;;;;;31.70;18.73;;;;;;;21.95;46.55;100624.38;4428491;32;20033;-69
2021/10/17 00:40:17;;;;;;;28.15;17.05;;;;;;;21.69;46.85;100625.38;4427700;32;20037;-69
2021/10/17 00:42:44;;;;;;;30.73;17.05;;;;;;;21.86;46.79;100616.03;4427231;32;20380;-68
2021/10/17 00:45:18;;;;;;;35.20;19.30;;;;;;;22.00;46.52;100620.75;4426060;32;20080;-69
2021/10/17 00:47:44;;;;;;;33.90;18.45;;;;;;;21.75;47.29;100613.94;4423776;32;20395;-69
2021/10/17 00:50:11;;;;;;;41.83;18.23;;;;;;;21.66;47.12;100611.28;4425616;32;20112;-69
2021/10/17 00:52:41;;;;;;;31.20;19.10;;;;;;;21.75;47.11;100616.03;4426574;32;20859;-69
2021/10/17 00:55:11;;;;;;;36.00;18.25;;;;;;;22.01;46.61;100613.69;4425137;32;20391;-69
2021/10/17 00:57:38;;;;;;;29.23;17.87;;;;;;;21.97;46.73;100618.94;4425412;32;20033;-69
2021/10/17 01:00:05;;;;;;;33.58;18.55;;;;;;;21.88;46.68;100613.44;4423211;32;20061;-69
2021/10/17 01:02:31;;;;;;;36.05;18.33;;;;;;;21.87;46.98;100611.88;4425751;32;20046;-69
2021/10/17 01:04:59;;;;;;;35.13;18.67;;;;;;;21.83;46.94;100608.47;4421633;32;20060;-69
2021/10/17 01:07:25;;;;;;;37.88;18.70;;;;;;;21.87;46.76;100615.53;4426049;32;20394;-69
2021/10/17 01:09:51;;;;;;;34.92;18.12;;;;;;;21.72;46.99;100609.22;4427318;32;20085;-69
2021/10/17 01:12:16;;;;;;;32.13;18.23;;;;;;;21.94;46.69;100608.50;4425317;32;20102;-69
2021/10/17 01:14:42;;;;;;;31.87;18.27;;;;;;;22.03;46.42;100616.84;4425581;32;20441;-69
2021/10/17 01:17:08;;;;;;;32.28;17.73;;;;;;;22.04;46.42;100612.66;4422416;32;20387;-69
2021/10/17 01:19:34;;;;;;;35.22;18.45;;;;;;;22.01;46.39;100611.62;4422900;32;20038;-69
2021/10/17 01:22:02;;;;;;;35.17;19.08;;;;;;;21.80;46.75;100598.84;4425245;32;20034;-69
2021/10/17 01:24:28;;;;;;;29.83;18.65;;;;;;;22.15;46.26;100609.81;4426694;32;20034;-69
2021/10/17 01:26:54;;;;;;;34.78;18.58;;;;;;;22.10;46.00;100599.91;4425397;32;20064;-69
2021/10/17 01:29:21;;;;;;;30.30;17.52;;;;;;;22.07;46.07;100603.03;4423700;32;20528;-69
2021/10/17 01:31:53;;;;;;;30.35;17.73;;;;;;;22.22;46.01;100595.72;4425789;32;20029;-69
2021/10/17 01:34:20;;;;;;;32.95;18.40;;;;;;;22.26;45.63;100596.25;4426294;32;20133;-69
2021/10/17 01:36:46;;;;;;;30.40;17.95;;;;;;;22.02;46.06;100598.06;4426379;32;20119;-69
2021/10/17 01:39:15;;;;;;;33.28;18.48;;;;;;;21.76;46.87;100588.94;4426833;32;20081;-69
2021/10/17 01:41:41;;;;;;;30.80;17.48;;;;;;;21.98;46.38;100591.81;4427627;32;20077;-69
2021/10/17 01:44:11;;;;;;;32.13;17.83;;;;;;;21.65;46.92;100592.56;4419224;32;20455;-69
2021/10/17 01:46:37;;;;;;;34.97;19.17;;;;;;;21.44;47.71;100591.19;4419985;32;20097;-69
2021/10/17 01:49:06;;;;;;;33.53;18.83;;;;;;;21.21;47.90;100593.25;4423018;32;20038;-70
2021/10/17 01:51:32;;;;;;;33.60;20.05;;;;;;;21.12;48.26;100581.25;4425549;32;20088;-69
2021/10/17 01:53:58;;;;;;;35.97;20.58;;;;;;;20.51;49.52;100588.72;4427466;32;20479;-69
2021/10/17 01:56:23;;;;;;;40.83;20.80;;;;;;;20.30;50.23;100593.00;4421428;32;20074;-69
2021/10/17 01:58:49;;;;;;;37.75;22.30;;;;;;;20.59;49.47;100581.25;4425807;32;20427;-69
2021/10/17 02:01:15;;;;;;;38.47;20.42;;;;;;;20.20;50.52;100578.12;4423861;32;20691;-69
2021/10/17 02:03:41;;;;;;;37.65;20.55;;;;;;;20.28;50.45;100572.72;4423825;32;20069;-68
2021/10/17 02:06:07;;;;;;;36.53;19.98;;;;;;;20.10;50.93;100564.53;4423127;32;20102;-68
2021/10/17 02:08:32;;;;;;;34.65;20.30;;;;;;;19.95;51.23;100572.44;4426952;32;20074;-68
2021/10/17 02:10:58;;;;;;;37.28;21.95;;;;;;;20.22;50.57;100571.91;4425223;32;20022;-68
2021/10/17 02:13:24;;;;;;;39.38;20.88;;;;;;;20.18;50.76;100566.41;4425223;32;20430;-68
2021/10/17 02:15:50;;;;;;;43.40;21.95;;;;;;;20.15;50.78;100573.16;4425762;32;20362;-68
2021/10/17 02:18:15;;;;;;;34.88;21.05;;;;;;;20.07;50.90;100574.91;4426850;32;20065;-68
2021/10/17 02:20:42;;;;;;;35.45;21.08;;;;;;;20.17;50.77;100569.78;4426185;32;20088;-68
2021/10/17 02:23:08;;;;;;;37.75;21.25;;;;;;;20.34;50.51;100564.97;4427108;32;20431;-68
2021/10/17 02:25:34;;;;;;;35.80;20.85;;;;;;;20.25;50.62;100568.03;4427120;32;20033;-68
2021/10/17 02:28:01;;;;;;;39.20;20.70;;;;;;;19.92;51.26;100557.12;4424876;32;20071;-68
2021/10/17 02:30:27;;;;;;;35.45;20.67;;;;;;;20.32;50.28;100568.34;4425569;32;20362;-68
2021/10/17 02:32:53;;;;;;;36.08;20.80;;;;;;;20.32;50.39;100562.63;4428418;32;20404;-68
2021/10/17 02:35:19;;;;;;;35.75;19.75;;;;;;;19.98;50.91;100566.50;4425451;32;20077;-68
2021/10/17 02:37:45;;;;;;;36.65;21.10;;;;;;;20.36;50.08;100566.03;4424642;32;20081;-68
2021/10/17 02:40:12;;;;;;;32.38;19.48;;;;;;;20.19;50.59;100570.84;4428949;32;20424;-69
2021/10/17 02:42:37;;;;;;;36.28;19.27;;;;;;;20.42;49.91;100563.97;4425102;32;20061;-69
2021/10/17 02:45:05;;;;;;;34.30;19.27;;;;;;;20.45;49.43;100571.53;4424466;32;20082;-69
2021/10/17 02:47:31;;;;;;;37.67;20.15;;;;;;;20.78;49.11;100577.44;4425927;32;20038;-69
2021/10/17 02:49:57;;;;;;;33.63;18.75;;;;;;;20.81;48.85;100564.97;4426784;32;20064;-69
2021/10/17 02:52:23;;;;;;;33.03;19.05;;;;;;;20.94;48.31;100570.22;4426771;32;20081;-69
2021/10/17 02:54:48;;;;;;;34.10;18.42;;;;;;;20.99;48.17;100567.41;4426786;32;20037;-69
2021/10/17 02:57:14;;;;;;;33.05;17.52;;;;;;;21.15;47.73;100549.53;4421425;32;20144;-69
2021/10/17 02:59:40;;;;;;;29.17;16.83;;;;;;;20.77;48.47;100544.41;4425548;32;20094;-69
2021/10/17 03:02:06;;;;;;;36.58;17.67;;;;;;;20.81;48.24;100541.31;4423124;32;20123;-69
2021/10/17 03:04:32;;;;;;;33.25;17.15;;;;;;;21.03;48.08;100532.81;4425485;32;20048;-69
2021/10/17 03:06:57;;;;;;;30.33;17.55;;;;;;;21.04;47.66;100532.31;4426897;32;20026;-69
2021/10/17 03:09:23;;;;;;;33.03;17.02;;;;;;;21.10;47.60;100530.25;4427248;32;20038;-69
2021/10/17 03:11:49;;;;;;;32.35;16.62;;;;;;;20.99;47.60;100527.34;4424745;32;20045;-69
2021/10/17 03:14:15;;;;;;;26.98;16.60;;;;;;;20.91;47.85;100517.69;4425056;32;20026;-69
2021/10/17 03:16:42;;;;;;;30.83;16.67;;;;;;;21.08;47.56;100514.91;4425604;32;20046;-69
2021/10/17 03:19:09;;;;;;;32.33;16.90;;;;;;;21.01;47.39;100512.53;4426804;32;20097;-69
2021/10/17 03:21:35;;;;;;;26.05;16.00;;;;;;;21.25;47.36;100512.84;4428050;32;20086;-69
2021/10/17 03:24:00;;;;;;;28.90;15.80;;;;;;;20.71;48.40;100512.13;4428396;32;20754;-69
2021/10/17 03:26:27;;;;;;;25.25;16.23;;;;;;;20.68;48.58;100498.88;4426465;32;20102;-69
2021/10/17 03:28:53;;;;;;;26.87;16.58;;;;;;;20.49;49.06;100497.75;4426987;32;20053;-69
2021/10/17 03:31:18;;;;;;;29.55;16.02;;;;;;;20.47;49.05;100494.63;4428034;32;20144;-69
2021/10/17 03:33:44;;;;;;;25.65;14.70;;;;;;;20.81;48.35;100495.53;4427011;32;20060;-69
2021/10/17 03:36:09;;;;;;;25.77;14.68;;;;;;;20.82;48.30;100494.22;4424956;32;20046;-69
2021/10/17 03:38:35;;;;;;;28.27;15.18;;;;;;;20.72;48.40;100490.03;4424667;32;20081;-69
2021/10/17 03:41:01;;;;;;;28.70;15.25;;;;;;;20.77;48.47;100504.34;4426698;32;20069;-69
2021/10/17 03:43:27;;;;;;;27.08;14.98;;;;;;;20.64;48.79;100504.06;4428072;32;20067;-69
2021/10/17 03:45:53;;;;;;;30.17;16.45;;;;;;;20.55;49.39;100503.47;4426083;32;20133;-69
2021/10/17 03:48:19;;;;;;;28.75;15.52;;;;;;;20.56;49.65;100502.97;4424604;32;20398;-69
2021/10/17 03:50:44;;;;;;;30.25;16.17;;;;;;;20.45;49.93;100494.34;4426405;32;20362;-69
2021/10/17 03:53:10;;;;;;;28.27;17.50;;;;;;;20.35;50.23;100490.16;4428864;32;20449;-68
2021/10/17 03:55:37;;;;;;;29.40;15.98;;;;;;;20.11;50.79;100486.88;4423188;32;20053;-68
2021/10/17 03:58:04;;;;;;;28.52;17.08;;;;;;;20.17;50.70;100476.28;4425666;32;20033;-68
2021/10/17 04:00:30;;;;;;;29.00;17.37;;;;;;;20.00;51.39;100475.38;4426094;32;20049;-68
2021/10/17 04:02:56;;;;;;;28.65;17.27;;;;;;;20.20;50.77;100480.19;4427015;32;20104;-68
2021/10/17 04:05:21;;;;;;;26.48;15.73;;;;;;;20.43;50.47;100487.59;4424883;32;20675;-68
2021/10/17 04:07:47;;;;;;;29.70;16.00;;;;;;;20.38;50.25;100480.56;4420112;32;20081;-68
2021/10/17 04:10:13;;;;;;;26.83;15.77;;;;;;;20.38;50.00;100474.84;4424537;32;20106;-68
2021/10/17 04:12:38;;;;;;;29.45;15.27;;;;;;;20.29;50.57;100471.41;4423739;32;20074;-68
2021/10/17 04:15:07;;;;;;;25.48;16.10;;;;;;;20.28;50.73;100464.91;4425692;32;20073;-68
2021/10/17 04:17:33;;;;;;;29.58;17.12;;;;;;;20.53;50.38;100460.34;4423760;32;20383;-68
2021/10/17 04:19:58;;;;;;;30.70;16.02;;;;;;;20.10;51.24;100455.97;4425479;32;20056;-68
2021/10/17 04:22:24;;;;;;;28.00;16.55;;;;;;;20.13;51.09;100464.31;4423081;32;20068;-68
2021/10/17 04:24:49;;;;;;;28.23;17.17;;;;;;;20.15;51.06;100458.09;4426600;32;20133;-68
2021/10/17 04:27:15;;;;;;;28.10;15.98;;;;;;;20.31;50.86;100458.16;4423552;32;20047;-68
2021/10/17 04:29:41;;;;;;;30.33;16.00;;;;;;;19.97;51.72;100453.53;4426153;32;20072;-68
2021/10/17 04:32:08;;;;;;;28.08;16.35;;;;;;;20.20;51.10;100460.19;4425762;32;20092;-68
2021/10/17 04:34:33;;;;;;;28.85;16.67;;;;;;;20.48;50.71;100452.53;4425606;32;20443;-68
2021/10/17 04:37:01;;;;;;;26.65;16.87;;;;;;;20.47;50.50;100451.75;4423333;32;20060;-68
2021/10/17 04:39:26;;;;;;;28.02;16.65;;;;;;;20.51;50.60;100460.06;4425978;32;20114;-68
2021/10/17 04:41:52;;;;;;;28.98;15.85;;;;;;;20.48;50.45;100456.16;4426705;32;20022;-68
2021/10/17 04:44:19;;;;;;;24.37;16.25;;;;;;;20.80;49.77;100462.53;4427019;32;20073;-68
2021/10/17 04:46:45;;;;;;;28.17;15.90;;;;;;;21.08;48.97;100457.69;4423205;32;20064;-68
2021/10/17 04:49:10;;;;;;;33.78;15.75;;;;;;;21.10;48.86;100460.78;4422251;32;20069;-68
2021/10/17 04:51:36;;;;;;;28.73;17.02;;;;;;;20.94;49.17;100459.47;4423221;32;20077;-68
2021/10/17 04:54:02;;;;;;;28.65;16.15;;;;;;;20.93;49.25;100457.84;4427689;32;20034;-68
2021/10/17 04:56:28;;;;;;;29.60;16.92;;;;;;;20.83;49.16;100455.78;4424885;32;20543;-68
2021/10/17 04:58:53;;;;;;;26.55;16.62;;;;;;;20.59;49.72;100459.06;4426410;32;20579;-68
2021/10/17 05:01:19;;;;;;;27.15;16.98;;;;;;;20.54;50.07;100454.13;4425119;32;20041;-68
2021/10/17 05:03:45;;;;;;;26.45;17.05;;;;;;;20.59;49.95;100450.47;4425203;32;20029;-68
2021/10/17 05:06:11;;;;;;;32.28;16.83;;;;;;;20.52;50.19;100447.34;4426265;32;20076;-68
2021/10/17 05:08:37;;;;;;;23.80;15.60;;;;;;;20.32;50.61;100447.53;4425892;32;20073;-68
2021/10/17 05:11:04;;;;;;;26.60;16.80;;;;;;;20.70;49.77;100441.16;4424394;32;20077;-68
2021/10/17 05:13:30;;;;;;;26.60;16.62;;;;;;;20.70;49.57;100441.16;4425300;32;20181;-68
2021/10/17 05:15:56;;;;;;;27.55;16.12;;;;;;;20.66;49.82;100440.63;4421847;32;20757;-68
2021/10/17 05:18:22;;;;;;;29.08;15.98;;;;;;;20.45;50.47;100434.31;4424973;32;20073;-68
2021/10/17 05:20:51;;;;;;;27.35;16.65;;;;;;;20.76;49.78;100444.81;4422226;32;20066;-68
2021/10/17 05:23:16;;;;;;;31.45;16.52;;;;;;;21.09;49.02;100444.91;4425670;32;20132;-68
2021/10/17 05:25:43;;;;;;;24.90;15.88;;;;;;;21.19;48.74;100447.00;4423475;32;20038;-68
2021/10/17 05:28:11;;;;;;;28.38;16.45;;;;;;;21.62;47.86;100451.19;4422986;32;20291;-68
2021/10/17 05:30:37;;;;;;;34.08;15.40;;;;;;;21.81;47.19;100445.72;4425877;32;20096;-68
2021/10/17 05:33:03;;;;;;;21.02;14.48;;;;;;;21.55;47.69;100446.00;4427016;32;20038;-68
2021/10/17 05:35:29;;;;;;;27.52;15.40;;;;;;;21.87;47.11;100454.31;4422761;32;20364;-68
2021/10/17 05:37:55;;;;;;;24.90;14.98;;;;;;;21.94;46.78;100456.63;4423953;32;20021;-68
2021/10/17 05:40:21;;;;;;;21.77;14.70;;;;;;;21.78;46.93;100463.94;4424985;32;20046;-68
2021/10/17 05:42:47;;;;;;;21.10;14.75;;;;;;;21.60;47.55;100450.16;4428005;32;20075;-68
2021/10/17 05:45:12;;;;;;;22.73;13.45;;;;;;;21.72;47.46;100462.38;4427104;32;20667;-68
2021/10/17 05:47:38;;;;;;;21.67;13.70;;;;;;;21.94;47.00;100466.03;4427556;32;20073;-68
2021/10/17 05:50:05;;;;;;;22.33;13.25;;;;;;;21.31;48.23;100464.97;4427538;32;20366;-68
2021/10/17 05:52:31;;;;;;;22.15;13.55;;;;;;;21.39;48.63;100461.06;4425621;32;20078;-68
2021/10/17 05:54:57;;;;;;;24.90;14.27;;;;;;;21.19;49.00;100455.59;4425601;32;20113;-68
2021/10/17 05:57:23;;;;;;;24.10;14.07;;;;;;;21.11;49.48;100459.50;4422296;32;20111;-68
2021/10/17 05:59:50;;;;;;;19.90;12.80;;;;;;;21.14;49.46;100450.63;4428524;32;20061;-68
2021/10/17 06:02:17;;;;;;;17.95;11.40;;;;;;;20.90;50.10;100443.81;4422552;32;20446;-68
2021/10/17 06:04:43;;;;;;;17.48;10.35;;;;;;;20.76;50.23;100442.75;4424552;32;20045;-68
2021/10/17 06:07:11;;;;;;;11.05;7.68;;;;;;;20.64;50.47;100446.87;4427401;32;20113;-69
2021/10/17 06:09:39;;;;;;;11.98;7.78;;;;;;;20.39;50.23;100432.72;4423969;32;20542;-68
2021/10/17 06:12:06;;;;;;;11.07;7.82;;;;;;;20.21;50.43;100436.81;4421988;32;20066;-68
2021/10/17 06:14:32;;;;;;;10.13;6.25;;;;;;;20.23;50.45;100437.09;4427057;32;20080;-68
2021/10/17 06:16:58;;;;;;;12.65;6.43;;;;;;;20.02;50.62;100444.22;4426229;32;20522;-68
2021/10/17 06:19:26;;;;;;;9.15;6.32;;;;;;;20.21;50.42;100447.47;4425157;32;20123;-68
2021/10/17 06:21:52;;;;;;;8.57;6.07;;;;;;;20.58;49.50;100454.66;4428328;32;20432;-68
2021/10/17 06:24:18;;;;;;;8.68;5.93;;;;;;;20.62;49.33;100449.44;4426359;32;20084;-69
2021/10/17 06:26:45;;;;;;;9.88;6.37;;;;;;;20.78;48.95;100457.31;4425797;32;20063;-68
2021/10/17 06:29:11;;;;;;;9.50;6.43;;;;;;;21.01;48.87;100461.03;4428845;32;20034;-68
2021/10/17 06:31:38;;;;;;;9.73;5.55;;;;;;;20.95;48.80;100446.72;4425925;32;20193;-68
2021/10/17 06:34:04;;;;;;;11.00;6.15;;;;;;;21.08;48.84;100449.84;4428014;32;20333;-68
2021/10/17 06:36:30;;;;;;;12.77;6.45;;;;;;;20.88;49.48;100455.00;4429208;32;20095;-68
2021/10/17 06:38:56;;;;;;;10.43;6.65;;;;;;;21.22;48.64;100456.63;4426015;32;20069;-68
2021/10/17 06:41:22;;;;;;;10.90;5.80;;;;;;;21.40;48.62;100456.12;4429939;32;20038;-68
2021/10/17 06:43:47;;;;;;;8.23;5.78;;;;;;;21.35;48.46;100460.56;4427522;32;20038;-69
2021/10/17 06:46:13;;;;;;;8.23;5.37;;;;;;;21.16;48.86;100459.50;4425632;32;20095;-68
2021/10/17 06:48:39;;;;;;;8.90;5.80;;;;;;;20.97;49.22;100463.38;4426861;32;20034;-68
2021/10/17 06:51:04;;;;;;;12.43;6.70;;;;;;;20.96;49.21;100465.44;4425961;32;20168;-68
2021/10/17 06:53:30;;;;;;;10.63;6.10;;;;;;;21.02;49.40;100469.09;4425795;32;20834;-68
2021/10/17 06:55:56;;;;;;;9.23;5.78;;;;;;;21.17;49.16;100468.88;4426251;32;20514;-68
2021/10/17 06:58:22;;;;;;;9.18;6.35;;;;;;;21.06;49.70;100474.56;4422926;32;20041;-68
2021/10/17 07:00:48;;;;;;;8.70;5.90;;;;;;;21.38;49.14;100470.16;4422282;32;20137;-68
2021/10/17 07:03:13;;;;;;;8.60;5.35;;;;;;;21.43;49.05;100483.72;4426651;32;20050;-68
2021/10/17 07:05:39;;;;;;;8.23;6.03;;;;;;;20.87;50.17;100470.59;4425094;32;20100;-68
2021/10/17 07:08:05;;;;;;;8.95;5.90;;;;;;;21.11;50.17;100477.44;4423221;32;20423;-68
2021/10/17 07:10:30;;;;;;;7.68;5.45;;;;;;;21.14;50.00;100472.78;4425796;32;20072;-68
2021/10/17 07:12:56;;;;;;;9.70;5.78;;;;;;;21.03;50.16;100479.25;4427227;32;20770;-67
2021/10/17 07:15:21;;;;;;;9.73;6.62;;;;;;;20.94;50.23;100476.63;4424037;32;20073;-68
2021/10/17 07:17:47;;;;;;;7.87;5.65;;;;;;;20.90;50.26;100481.78;4427184;32;20050;-68
2021/10/17 07:20:13;;;;;;;9.02;5.90;;;;;;;20.97;50.21;100481.31;4427059;32;20064;-68
2021/10/17 07:22:38;;;;;;;10.57;6.55;;;;;;;21.17;50.01;100475.34;4427602;32;20430;-68
2021/10/17 07:25:04;;;;;;;10.77;5.55;;;;;;;21.23;49.79;100469.66;4419192;32;20021;-68
2021/10/17 07:27:30;;;;;;;7.87;5.35;;;;;;;21.20;49.73;100474.31;4421405;32;20110;-68
2021/10/17 07:29:55;;;;;;;8.85;5.53;;;;;;;21.25;49.16;100472.78;4424078;32;20038;-68
2021/10/17 07:32:21;;;;;;;8.60;5.85;;;;;;;21.45;49.23;100466.81;4422231;32;20090;-68
2021/10/17 07:34:47;;;;;;;9.55;5.80;;;;;;;21.30;49.44;100474.87;4425020;32;20096;-68
2021/10/17 07:37:12;;;;;;;9.13;5.70;;;;;;;21.48;49.13;100480.09;4426064;32;20588;-68
2021/10/17 07:39:40;;;;;;;8.18;5.22;;;;;;;21.44;49.29;100485.28;4423154;32;20604;-68
2021/10/17 07:42:06;;;;;;;8.95;5.20;;;;;;;21.42;49.14;100470.72;4426186;32;20069;-68
2021/10/17 07:44:31;;;;;;;6.70;5.18;;;;;;;21.04;49.77;100471.44;4426010;32;20897;-68
2021/10/17 07:46:58;;;;;;;8.32;4.95;;;;;;;21.37;49.04;100474.34;4422532;32;20070;-68
2021/10/17 07:49:24;;;;;;;6.43;4.65;;;;;;;21.47;49.15;100475.66;4423193;32;20034;-68
2021/10/17 07:51:50;;;;;;;9.23;4.90;;;;;;;21.48;49.20;100478.00;4424128;32;20131;-67
2021/10/17 07:54:15;;;;;;;7.57;4.57;;;;;;;21.33;49.26;100485.28;4423507;32;20159;-68
2021/10/17 07:56:41;;;;;;;8.18;5.00;;;;;;;21.42;49.05;100473.56;4427197;32;20054;-68
2021/10/17 07:59:07;;;;;;;6.57;4.87;;;;;;;21.30;49.53;100475.62;4425031;32;20045;-68
2021/10/17 08:01:32;;;;;;;7.82;5.62;;;;;;;21.29;49.58;100476.94;4425589;32;20100;-68
2021/10/17 08:03:58;;;;;;;9.93;5.43;;;;;;;21.40;49.27;100474.09;4424239;32;20112;-68
2021/10/17 08:06:23;;;;;;;6.93;5.03;;;;;;;21.53;48.90;100482.16;4426784;32;20383;-68
2021/10/17 08:08:49;;;;;;;7.57;4.15;;;;;;;21.74;48.62;100474.91;4425769;32;20065;-68
2021/10/17 08:11:16;;;;;;;6.28;4.40;;;;;;;22.07;47.90;100482.66;4426784;32;20073;-68
2021/10/17 08:13:42;;;;;;;6.05;4.15;;;;;;;21.89;48.08;100486.06;4425229;32;20081;-68
2021/10/17 08:16:08;;;;;;;6.50;4.60;;;;;;;21.84;47.97;100476.19;4425022;32;20408;-68
2021/10/17 08:18:34;;;;;;;5.70;3.75;;;;;;;22.30;47.20;100487.81;4425517;32;20137;-68
2021/10/17 08:20:59;;;;;;;7.43;4.72;;;;;;;22.51;46.80;100485.41;4427560;32;20098;-68
2021/10/17 08:23:25;;;;;;;7.07;3.80;;;;;;;22.67;46.60;100485.34;4424634;32;20048;-68
2021/10/17 08:25:51;;;;;;;6.30;3.70;;;;;;;22.35;46.77;100492.75;4420886;32;20181;-68
2021/10/17 08:28:17;;;;;;;7.87;4.00;;;;;;;22.40;46.71;100488.31;4423086;32;20038;-68
2021/10/17 08:30:44;;;;;;;5.57;3.85;;;;;;;22.33;47.14;100488.84;4425913;32;20133;-68
2021/10/17 08:33:10;;;;;;;4.47;3.65;;;;;;;22.75;46.29;100494.97;4427962;32;20029;-68
2021/10/17 08:35:36;;;;;;;6.50;3.97;;;;;;;22.88;45.83;100491.50;4422882;32;20058;-68
2021/10/17 08:38:01;;;;;;;5.50;4.18;;;;;;;22.47;46.79;100493.50;4424862;32;20100;-68
2021/10/17 08:40:27;;;;;;;6.28;3.97;;;;;;;22.57;46.41;100497.66;4428708;32;20045;-68
2021/10/17 08:42:53;;;;;;;6.95;4.53;;;;;;;22.95;46.00;100506.06;4427719;32;20111;-68
2021/10/17 08:45:19;;;;;;;5.12;3.87;;;;;;;22.65;46.35;100495.81;4422658;32;20332;-68
2021/10/17 08:47:46;;;;;;;4.87;3.80;;;;;;;22.62;46.66;100497.66;4425613;32;20034;-68
2021/10/17 08:50:15;;;;;;;6.50;4.00;;;;;;;22.78;46.33;100496.00;4423958;32;20033;-68
2021/10/17 08:52:42;;;;;;;5.93;3.83;;;;;;;22.55;46.43;100500.28;4424482;32;20651;-68
2021/10/17 08:55:08;;;;;;;6.78;3.10;;;;;;;22.42;46.89;100505.75;4424047;32;20220;-68
2021/10/17 08:57:34;;;;;;;6.05;3.53;;;;;;;22.57;46.32;100501.31;4423925;32;20043;-68
2021/10/17 09:00:00;;;;;;;4.65;3.17;;;;;;;22.41;46.62;100516.47;4423338;32;20157;-68
2021/10/17 09:02:27;;;;;;;4.60;3.37;;;;;;;22.62;45.99;100509.13;4425136;32;20131;-68
2021/10/17 09:05:09;;;;;;;4.15;3.08;;;;;;;22.27;46.11;100523.25;4427734;32;20220;-68
2021/10/17 09:07:35;;;;;;;4.95;3.28;;;;;;;22.63;45.94;100515.63;4419624;32;20073;-68
2021/10/17 09:10:16;;;;;;;4.65;3.42;;;;;;;22.60;45.74;100511.72;4423599;32;20100;-68
2021/10/17 09:12:45;;;;;;;6.05;3.05;;;;;;;23.10;45.01;100515.13;4426504;32;20107;-68
2021/10/17 09:20:58;;;;;;;4.87;3.33;;;;;;;23.64;44.39;100529.66;3984954;32;15022780;-69
2021/10/17 09:26:07;;;;;;;6.07;3.55;;;;;;;23.67;44.23;100527.81;3955489;32;15723530;-69
2021/10/17 09:28:32;;;;;;;6.43;3.80;;;;;;;23.67;44.23;100527.81;4434563;32;20037;-69
2021/10/17 09:33:53;;;;;;;7.07;3.35;;;;;;;23.81;44.07;100518.84;3984298;32;15023525;-69
2021/10/17 09:39:17;;;;;;;5.37;3.22;;;;;;;23.49;44.98;100518.56;3984514;32;15022484;-69
2021/10/17 09:41:49;;;;;;;4.18;2.78;;;;;;;23.49;44.98;100518.56;4439540;32;20385;-69
2021/10/17 09:44:15;;;;;;;3.85;2.60;;;;;;;22.74;45.90;100512.72;4436850;32;20067;-69
2021/10/17 09:47:01;;;;;;;5.03;2.72;;;;;;;22.35;47.28;100501.34;4437397;32;20128;-69
2021/10/17 09:49:27;;;;;;;3.58;2.67;;;;;;;22.65;46.51;100510.94;4436093;32;20041;-69
2021/10/17 09:52:15;;;;;;;3.50;2.67;;;;;;;22.36;47.58;100507.87;4436206;32;20032;-69
2021/10/17 09:54:45;;;;;;;5.68;2.60;;;;;;;22.48;46.83;100515.91;4435786;32;20088;-69
2021/10/17 09:57:11;;;;;;;4.32;2.60;;;;;;;22.52;47.31;100516.44;4435829;32;20081;-69
2021/10/17 09:59:37;;;;;;;4.15;2.60;;;;;;;22.29;47.92;100511.25;4434320;32;20448;-69
2021/10/17 10:02:07;;;;;;;5.20;2.70;;;;;;;22.36;47.95;100505.00;4438663;32;20050;-69
2021/10/17 10:04:35;;;;;;;3.40;2.70;;;;;;;22.07;48.66;100509.25;4438212;32;20130;-69
2021/10/17 10:07:02;;;;;;;3.45;2.75;;;;;;;22.20;48.42;100506.59;4438578;32;20061;-69
2021/10/17 10:09:31;;;;;;;5.40;2.70;;;;;;;22.00;48.88;100506.13;4436527;32;20054;-69
2021/10/17 10:11:58;;;;;;;5.20;2.50;;;;;;;22.15;48.54;100503.75;4435703;32;20026;-69
2021/10/17 10:14:24;;;;;;;3.15;2.40;;;;;;;22.21;48.41;100502.41;4434225;32;20073;-69
2021/10/17 10:16:55;;;;;;;3.30;2.25;;;;;;;22.71;47.34;100505.97;4437845;32;20499;-69
2021/10/17 10:19:21;;;;;;;4.15;2.20;;;;;;;22.72;46.69;100510.38;4435447;32;20034;-69
2021/10/17 10:21:47;;;;;;;1.95;1.40;;;;;;;23.02;46.30;100505.53;4435661;32;20055;-69
2021/10/17 10:24:16;;;;;;;3.37;2.20;;;;;;;23.33;45.55;100507.19;4433073;32;20350;-69
2021/10/17 10:26:43;;;;;;;2.75;1.73;;;;;;;23.74;44.71;100507.91;4433204;32;20417;-69
2021/10/17 10:29:08;;;;;;;2.08;1.60;;;;;;;23.60;44.77;100509.09;4435798;32;20030;-70
2021/10/17 10:31:51;;;;;;;3.60;1.40;;;;;;;23.66;44.44;100515.56;4437662;32;20037;-69
2021/10/17 10:40:08;;;;;;;1.75;1.40;;;;;;;24.66;42.80;100509.59;3984041;32;15023784;-70
2021/10/17 10:42:36;;;;;;;3.30;2.17;;;;;;;24.66;42.80;100509.59;4434329;32;20234;-69
2021/10/17 10:50:54;;;;;;;5.15;2.10;;;;;;;23.66;45.58;100509.81;3984059;32;15025321;-69
2021/10/17 10:53:48;;;;;;;4.87;2.05;;;;;;;23.66;45.58;100509.81;4438280;32;20038;-70
2021/10/17 10:59:16;;;;;;;5.25;2.78;;;;;;;24.03;44.87;100512.13;3983187;32;15023714;-70
2021/10/17 11:09:53;;;;;;;4.95;3.17;;;;;;;23.61;45.76;100516.38;3985833;32;15026907;-70
2021/10/17 11:15:18;;;;;;;6.85;3.50;;;;;;;23.72;45.21;100524.13;3996533;31;15014951;-70
2021/10/17 11:18:04;;;;;;;5.65;3.90;;;;;;;23.72;45.21;100524.13;4448003;32;20136;-68
2021/10/17 11:20:36;;;;;;;5.20;3.83;;;;;;;23.21;45.85;100523.69;4435398;32;20093;-69
2021/10/17 11:23:04;;;;;;;4.85;3.70;;;;;;;23.49;45.48;100526.38;4451777;32;20529;-69
2021/10/17 11:25:30;;;;;;;9.90;4.32;;;;;;;22.90;46.96;100512.63;4445613;32;20060;-69
2021/10/17 11:27:56;;;;;;;7.68;4.40;;;;;;;23.28;46.27;100502.25;4447098;32;20106;-69
2021/10/17 11:30:38;;;;;;;4.70;4.03;;;;;;;23.50;45.36;100513.56;4444953;32;20089;-69
2021/10/17 11:33:17;;;;;;;6.25;3.80;;;;;;;24.43;43.85;100519.81;4444383;32;20136;-69
2021/10/17 11:35:43;;;;;;;7.05;4.32;;;;;;;24.94;42.54;100524.41;4446635;32;20116;-69
2021/10/17 11:38:08;;;;;;;9.32;4.78;;;;;;;25.26;41.57;100516.66;4448922;32;21433;-69
2021/10/17 11:40:36;;;;;;;8.23;4.18;;;;;;;25.43;41.22;100513.56;4447455;32;20561;-69
2021/10/17 11:43:05;;;;;;;6.50;4.20;;;;;;;26.01;39.92;100508.69;4450054;32;20081;-68
2021/10/17 11:45:33;;;;;;;6.50;4.57;;;;;;;26.32;39.27;100520.12;4431459;32;20320;-69
2021/10/17 11:48:01;;;;;;;6.80;4.30;;;;;;;26.75;38.03;100517.72;4448995;32;20092;-68
2021/10/17 11:50:30;;;;;;;7.15;5.00;;;;;;;26.56;38.50;100522.03;4444953;32;20483;-68
2021/10/17 11:52:59;;;;;;;7.00;4.72;;;;;;;26.49;38.61;100519.81;4445290;32;20116;-69